Time;durP1;ratioP1;P1;durP2;ratioP2;P2;SDS_P1;SDS_P2;PMS_P1;PMS_P2;Temp;Humidity;BMP_temperature;BMP_pressure;BME280_temperature;BME280_humidity;BME280_pressure;Samples;Min_cycle;Max_cycle;Signal;HPM_P1;HPM_P2
2022/07/09 00:01:29;;;;;;;1.63;0.53;;;13.40;99.90;;;;;;5083548;28;20929;-87
2022/07/09 00:03:56;;;;;;;1.37;0.60;;;13.40;99.90;;;;;;5071572;28;20920;-87
2022/07/09 00:06:23;;;;;;;0.80;0.70;;;13.40;99.90;;;;;;5071279;28;20518;-87
2022/07/09 00:08:50;;;;;;;3.20;0.90;;;13.40;99.90;;;;;;5068896;28;20458;-87
2022/07/09 00:11:17;;;;;;;1.20;0.80;;;13.40;99.90;;;;;;5078698;28;20511;-87
2022/07/09 00:13:44;;;;;;;0.70;0.70;;;13.40;99.90;;;;;;5079297;28;20564;-87
2022/07/09 00:16:12;;;;;;;1.03;0.60;;;13.50;99.90;;;;;;5083607;28;20471;-87
2022/07/09 00:18:39;;;;;;;5.93;0.70;;;13.50;99.90;;;;;;5083806;28;20470;-86
2022/07/09 00:21:06;;;;;;;0.87;0.60;;;13.50;99.90;;;;;;5075996;28;20552;-86
2022/07/09 00:23:34;;;;;;;2.93;0.90;;;13.60;99.90;;;;;;5078503;28;20494;-86
2022/07/09 00:26:01;;;;;;;0.83;0.67;;;13.60;99.90;;;;;;5081358;28;20468;-86
2022/07/09 00:28:28;;;;;;;1.17;0.87;;;13.50;99.90;;;;;;5082807;28;20529;-87
2022/07/09 00:30:55;;;;;;;0.50;0.50;;;13.60;99.90;;;;;;5079160;28;20905;-87
2022/07/09 00:33:23;;;;;;;1.13;0.70;;;13.60;99.90;;;;;;5083773;28;20556;-88
2022/07/09 00:35:50;;;;;;;0.63;0.60;;;13.60;99.90;;;;;;5071775;28;20823;-87
2022/07/09 00:38:17;;;;;;;1.20;0.70;;;13.60;99.90;;;;;;5079559;28;21088;-87
2022/07/09 00:40:44;;;;;;;1.67;0.80;;;13.60;99.90;;;;;;5071965;28;20499;-87
2022/07/09 00:43:18;;;;;;;1.67;0.60;;;13.70;99.90;;;;;;5076128;28;20760;-87
2022/07/09 00:45:45;;;;;;;1.00;0.60;;;13.70;99.90;;;;;;5083482;28;20508;-87
2022/07/09 00:48:12;;;;;;;1.27;0.60;;;13.70;99.90;;;;;;5073370;28;20469;-87
2022/07/09 00:50:42;;;;;;;0.60;0.50;;;13.70;99.90;;;;;;5084761;28;20458;-87
2022/07/09 00:53:11;;;;;;;0.80;0.70;;;13.60;99.90;;;;;;5078423;28;20510;-86
2022/07/09 00:55:41;;;;;;;0.87;0.80;;;13.70;99.90;;;;;;5080550;28;20581;-89
2022/07/09 00:58:09;;;;;;;1.33;0.60;;;13.70;99.90;;;;;;5071979;28;20801;-86
2022/07/09 01:00:36;;;;;;;1.37;0.80;;;13.70;99.90;;;;;;5079732;28;20499;-86
2022/07/09 01:03:04;;;;;;;0.70;0.70;;;13.70;99.90;;;;;;5078360;28;20955;-86
2022/07/09 01:05:35;;;;;;;2.30;0.60;;;13.70;99.90;;;;;;5080113;28;20515;-86
2022/07/09 01:08:05;;;;;;;1.57;1.03;;;13.70;99.90;;;;;;5078695;28;20527;-87
2022/07/09 01:10:32;;;;;;;1.30;1.00;;;13.70;99.90;;;;;;5083669;28;20545;-87
2022/07/09 01:13:00;;;;;;;0.87;0.70;;;13.70;99.90;;;;;;5083318;28;20490;-87
2022/07/09 01:15:27;;;;;;;1.10;1.00;;;13.70;99.90;;;;;;5079355;28;20460;-86
2022/07/09 01:17:55;;;;;;;1.00;0.70;;;13.70;99.90;;;;;;5078551;28;20967;-86
2022/07/09 01:20:25;;;;;;;1.20;0.73;;;13.70;99.90;;;;;;5082041;28;20542;-86
2022/07/09 01:22:53;;;;;;;1.13;0.63;;;13.60;99.90;;;;;;5085089;28;20438;-87
2022/07/09 01:25:21;;;;;;;1.03;0.70;;;13.60;99.90;;;;;;5072016;28;20459;-86
2022/07/09 01:27:48;;;;;;;1.17;0.83;;;13.60;99.90;;;;;;5080593;28;20553;-87
2022/07/09 01:30:24;;;;;;;4.77;1.07;;;13.70;99.90;;;;;;5079635;28;20557;-86
2022/07/09 01:32:52;;;;;;;1.20;0.60;;;13.60;99.90;;;;;;5077799;28;20562;-86
2022/07/09 01:35:19;;;;;;;0.70;0.60;;;13.60;99.90;;;;;;5078144;28;20449;-86
2022/07/09 01:37:47;;;;;;;1.33;0.60;;;13.50;99.90;;;;;;5078421;28;20496;-86
2022/07/09 01:40:14;;;;;;;1.00;0.90;;;13.50;99.90;;;;;;5079427;28;20555;-86
2022/07/09 01:42:41;;;;;;;2.53;1.13;;;13.60;99.90;;;;;;5078644;28;20521;-86
2022/07/09 01:45:09;;;;;;;1.73;0.73;;;13.50;99.90;;;;;;5082626;28;20491;-87
2022/07/09 01:47:37;;;;;;;2.10;0.80;;;13.50;99.90;;;;;;5077115;28;20564;-87
2022/07/09 01:50:04;;;;;;;3.33;0.53;;;13.40;99.90;;;;;;5074892;28;20918;-87
2022/07/09 01:52:31;;;;;;;0.73;0.50;;;13.50;99.90;;;;;;5083569;28;20831;-86
2022/07/09 01:55:00;;;;;;;1.60;0.83;;;13.50;99.90;;;;;;5080013;28;20522;-86
2022/07/09 01:57:27;;;;;;;1.57;0.73;;;13.40;99.90;;;;;;5083987;28;20835;-86
2022/07/09 01:59:54;;;;;;;0.73;0.73;;;13.40;99.90;;;;;;5075380;28;20473;-86
2022/07/09 02:02:21;;;;;;;1.93;1.13;;;13.40;99.90;;;;;;5080077;28;20524;-87
2022/07/09 02:04:49;;;;;;;2.10;1.27;;;13.40;99.90;;;;;;5077386;28;20459;-86
2022/07/09 02:07:16;;;;;;;0.90;0.87;;;13.40;99.90;;;;;;5074919;28;20653;-87
2022/07/09 02:09:43;;;;;;;2.30;0.80;;;13.40;99.90;;;;;;5082031;28;20895;-86
2022/07/09 02:12:11;;;;;;;0.90;0.63;;;13.30;99.90;;;;;;5081109;28;20835;-86
2022/07/09 02:14:39;;;;;;;2.40;1.00;;;13.40;99.90;;;;;;5078622;28;20882;-86
2022/07/09 02:17:06;;;;;;;0.70;0.70;;;13.40;99.90;;;;;;5072455;28;20492;-86
2022/07/09 02:19:33;;;;;;;0.90;0.70;;;13.30;99.90;;;;;;5079767;28;20473;-86
2022/07/09 02:22:00;;;;;;;0.80;0.60;;;13.40;99.90;;;;;;5078273;28;20494;-87
2022/07/09 02:24:28;;;;;;;6.07;0.87;;;13.40;99.90;;;;;;5074204;28;20930;-86
2022/07/09 02:26:55;;;;;;;3.33;1.10;;;13.40;99.90;;;;;;5082629;28;20470;-86
2022/07/09 02:29:23;;;;;;;1.00;0.67;;;13.50;99.90;;;;;;5082222;28;20441;-86
2022/07/09 02:31:50;;;;;;;0.80;0.60;;;13.50;99.90;;;;;;5067493;28;20508;-86
2022/07/09 02:34:17;;;;;;;0.57;0.50;;;13.60;99.90;;;;;;5072493;28;20501;-86
2022/07/09 02:36:44;;;;;;;0.80;0.80;;;13.70;99.90;;;;;;5077821;28;20463;-86
2022/07/09 02:39:11;;;;;;;1.53;0.70;;;13.60;99.90;;;;;;5065775;28;20483;-86
2022/07/09 02:41:38;;;;;;;3.10;0.73;;;13.60;99.90;;;;;;5077609;28;21001;-86
2022/07/09 02:44:06;;;;;;;1.67;0.70;;;13.60;99.90;;;;;;5080265;28;20864;-86
2022/07/09 02:46:34;;;;;;;1.00;0.60;;;13.60;99.90;;;;;;5077409;28;20489;-86
2022/07/09 02:49:01;;;;;;;0.77;0.70;;;13.70;99.90;;;;;;5072835;28;20643;-86
2022/07/09 02:51:28;;;;;;;0.50;0.50;;;13.60;99.90;;;;;;5076917;28;20519;-86
2022/07/09 02:53:55;;;;;;;2.40;0.70;;;13.60;99.90;;;;;;5081842;28;20486;-87
2022/07/09 02:56:22;;;;;;;0.70;0.63;;;13.60;99.90;;;;;;5065062;28;20460;-86
2022/07/09 02:58:49;;;;;;;2.80;0.70;;;13.70;99.90;;;;;;5077289;28;21007;-86
2022/07/09 03:01:16;;;;;;;0.70;0.70;;;13.70;99.90;;;;;;5075892;28;20474;-86
2022/07/09 03:03:44;;;;;;;0.70;0.50;;;13.60;99.90;;;;;;5076269;28;20462;-86
2022/07/09 03:06:12;;;;;;;1.30;0.83;;;13.70;99.90;;;;;;5080941;28;20458;-85
2022/07/09 03:08:39;;;;;;;0.60;0.60;;;13.70;99.90;;;;;;5081417;28;20557;-86
2022/07/09 03:11:07;;;;;;;1.00;0.60;;;13.70;99.90;;;;;;5079061;28;20463;-85
2022/07/09 03:13:34;;;;;;;0.60;0.60;;;13.60;99.90;;;;;;5071416;28;20484;-85
2022/07/09 03:16:01;;;;;;;1.10;0.60;;;13.60;99.90;;;;;;5078734;28;20460;-85
2022/07/09 03:18:28;;;;;;;1.00;0.80;;;13.50;99.90;;;;;;5077672;28;20655;-85
2022/07/09 03:20:57;;;;;;;0.93;0.60;;;13.60;99.90;;;;;;5073212;28;20979;-85
2022/07/09 03:23:24;;;;;;;1.13;1.13;;;13.60;99.90;;;;;;5074393;28;20492;-85
2022/07/09 03:25:51;;;;;;;0.77;0.77;;;13.70;99.90;;;;;;5078821;28;20534;-85
2022/07/09 03:28:18;;;;;;;1.00;0.90;;;13.60;99.90;;;;;;5080384;28;21497;-85
2022/07/09 03:30:46;;;;;;;2.80;0.70;;;13.80;99.90;;;;;;5070435;28;21141;-85
2022/07/09 03:33:13;;;;;;;0.77;0.57;;;13.90;99.90;;;;;;5077489;28;20490;-85
2022/07/09 03:35:39;;;;;;;1.00;0.90;;;13.80;99.90;;;;;;5077656;28;20506;-85
2022/07/09 03:38:08;;;;;;;2.47;0.83;;;13.90;99.90;;;;;;5080077;28;20440;-85
2022/07/09 03:40:35;;;;;;;9.93;1.20;;;13.80;99.90;;;;;;5079934;28;20473;-85
2022/07/09 03:43:02;;;;;;;0.80;0.80;;;13.80;99.90;;;;;;5068599;28;20482;-85
2022/07/09 03:45:29;;;;;;;0.67;0.50;;;13.80;99.90;;;;;;5079054;28;20556;-85
2022/07/09 03:47:56;;;;;;;1.23;0.77;;;13.70;99.90;;;;;;5076422;28;20533;-85
2022/07/09 03:50:23;;;;;;;0.97;0.87;;;13.80;99.90;;;;;;5069042;28;20486;-85
2022/07/09 03:52:50;;;;;;;1.00;0.80;;;13.90;99.90;;;;;;5079921;28;20463;-85
2022/07/09 03:55:19;;;;;;;4.70;1.00;;;14.00;99.90;;;;;;5078791;28;20524;-85
2022/07/09 03:57:46;;;;;;;1.10;1.00;;;14.20;99.90;;;;;;5075635;28;20460;-86
2022/07/09 04:00:13;;;;;;;6.27;0.93;;;14.20;99.90;;;;;;5074488;28;20493;-85
2022/07/09 04:02:40;;;;;;;0.90;0.90;;;14.30;99.90;;;;;;5081863;28;20458;-85
2022/07/09 04:05:09;;;;;;;1.97;0.90;;;14.30;99.90;;;;;;5071412;28;20527;-85
2022/07/09 04:07:36;;;;;;;1.17;1.07;;;14.50;99.90;;;;;;5076693;28;20463;-85
2022/07/09 04:10:04;;;;;;;0.90;0.67;;;14.50;99.90;;;;;;5077725;28;20610;-85
2022/07/09 04:12:32;;;;;;;0.60;0.60;;;14.40;99.90;;;;;;5076446;28;20728;-84
2022/07/09 04:15:00;;;;;;;0.90;0.90;;;14.30;99.90;;;;;;5068534;28;20484;-85
2022/07/09 04:17:27;;;;;;;0.90;0.80;;;14.30;99.90;;;;;;5071329;28;20545;-85
2022/07/09 04:19:54;;;;;;;1.03;0.70;;;14.20;99.90;;;;;;5074369;28;20520;-85
2022/07/09 04:22:20;;;;;;;1.03;0.93;;;14.20;99.90;;;;;;5075652;28;20930;-85
2022/07/09 04:24:47;;;;;;;0.70;0.70;;;14.30;99.90;;;;;;5077898;28;20824;-85
2022/07/09 04:27:14;;;;;;;1.93;0.70;;;14.30;99.90;;;;;;5080275;28;20503;-85
2022/07/09 04:29:43;;;;;;;0.50;0.50;;;14.30;99.90;;;;;;5079972;28;20555;-85
2022/07/09 04:32:10;;;;;;;2.60;0.67;;;14.30;99.90;;;;;;5069352;28;20621;-85
2022/07/09 04:34:37;;;;;;;0.70;0.70;;;14.30;99.90;;;;;;5082074;28;20483;-86
2022/07/09 04:37:04;;;;;;;1.17;0.60;;;14.50;99.90;;;;;;5081218;28;20463;-85
2022/07/09 04:39:32;;;;;;;0.73;0.73;;;14.50;99.90;;;;;;5081777;28;20504;-85
2022/07/09 04:41:59;;;;;;;1.20;0.53;;;14.40;99.90;;;;;;5075838;28;21003;-85
2022/07/09 04:44:26;;;;;;;1.70;0.83;;;14.40;99.90;;;;;;5080478;28;20461;-85
2022/07/09 04:46:55;;;;;;;0.50;0.50;;;14.50;99.90;;;;;;5088270;28;20451;-85
2022/07/09 04:49:24;;;;;;;0.70;0.70;;;14.40;99.90;;;;;;5076412;28;20840;-85
2022/07/09 04:51:51;;;;;;;1.10;0.80;;;14.60;99.90;;;;;;5087387;28;20476;-85
2022/07/09 04:54:18;;;;;;;1.33;0.60;;;14.60;99.90;;;;;;5077352;28;20486;-85
2022/07/09 04:56:45;;;;;;;1.20;1.00;;;14.70;99.90;;;;;;5078284;28;20517;-85
2022/07/09 04:59:12;;;;;;;0.70;0.70;;;14.60;99.90;;;;;;5080425;28;20475;-85
2022/07/09 05:01:39;;;;;;;0.70;0.50;;;14.70;99.90;;;;;;5076715;28;20931;-85
2022/07/09 05:04:07;;;;;;;0.73;0.73;;;14.80;99.90;;;;;;5081083;28;20838;-86
2022/07/09 05:06:34;;;;;;;1.33;0.70;;;14.90;99.90;;;;;;5070911;28;20690;-85
2022/07/09 05:09:01;;;;;;;0.77;0.70;;;14.80;99.90;;;;;;5074253;28;20555;-84
2022/07/09 05:11:28;;;;;;;1.30;0.70;;;14.90;99.90;;;;;;5074819;28;20840;-86
2022/07/09 05:13:55;;;;;;;0.60;0.50;;;14.90;99.90;;;;;;5071316;28;20483;-85
2022/07/09 05:16:22;;;;;;;0.70;0.50;;;15.00;99.90;;;;;;5072353;28;20789;-85
2022/07/09 05:18:49;;;;;;;2.20;1.00;;;15.30;99.90;;;;;;5083632;28;20448;-85
2022/07/09 05:21:17;;;;;;;0.60;0.60;;;15.50;99.90;;;;;;5079417;28;20491;-86
2022/07/09 05:23:44;;;;;;;0.70;0.70;;;15.50;99.90;;;;;;5077371;28;20508;-85
2022/07/09 05:26:12;;;;;;;1.63;0.90;;;15.50;99.90;;;;;;5073187;28;20467;-84
2022/07/09 05:28:39;;;;;;;1.70;0.63;;;15.60;99.90;;;;;;5073563;28;20456;-85
2022/07/09 05:31:07;;;;;;;0.60;0.60;;;15.70;99.90;;;;;;5079240;28;20518;-85
2022/07/09 05:33:34;;;;;;;2.07;0.70;;;15.50;99.90;;;;;;5067579;28;20824;-85
2022/07/09 05:36:01;;;;;;;0.60;0.60;;;15.80;99.90;;;;;;5071699;28;20464;-85
2022/07/09 05:38:29;;;;;;;1.50;1.10;;;16.00;99.90;;;;;;5074912;28;20880;-85
2022/07/09 05:40:57;;;;;;;0.93;0.87;;;16.00;99.90;;;;;;5081489;28;20474;-86
2022/07/09 05:43:24;;;;;;;2.37;0.70;;;16.10;99.90;;;;;;5074965;28;20882;-85
2022/07/09 05:45:51;;;;;;;1.37;0.80;;;16.20;99.90;;;;;;5071986;28;20535;-85
2022/07/09 05:48:18;;;;;;;0.70;0.60;;;16.10;99.90;;;;;;5073413;28;20539;-85
2022/07/09 05:50:45;;;;;;;1.07;0.70;;;16.20;99.90;;;;;;5075421;28;20501;-85
2022/07/09 05:53:12;;;;;;;3.53;1.00;;;16.10;99.90;;;;;;5068202;28;20463;-85
2022/07/09 05:55:40;;;;;;;0.70;0.60;;;16.20;99.90;;;;;;5073189;28;20480;-85
2022/07/09 05:58:07;;;;;;;1.83;0.90;;;16.40;99.90;;;;;;5067150;28;20794;-86
2022/07/09 06:00:34;;;;;;;0.53;0.53;;;16.50;99.90;;;;;;5068326;28;20528;-86
2022/07/09 06:03:01;;;;;;;1.30;0.60;;;16.50;99.90;;;;;;5067903;28;20462;-86
2022/07/09 06:05:28;;;;;;;1.13;0.73;;;16.50;99.90;;;;;;5065698;28;20461;-86
2022/07/09 06:07:55;;;;;;;1.20;0.70;;;16.60;99.90;;;;;;5075137;28;20963;-87
2022/07/09 06:10:22;;;;;;;0.80;0.80;;;16.50;99.90;;;;;;5065275;28;20973;-86
2022/07/09 06:12:51;;;;;;;0.70;0.63;;;16.70;99.90;;;;;;5071570;28;20493;-86
2022/07/09 06:15:18;;;;;;;1.03;0.50;;;16.80;99.90;;;;;;5075814;28;21001;-86
2022/07/09 06:17:45;;;;;;;1.83;0.50;;;16.80;99.90;;;;;;5078513;28;20446;-86
2022/07/09 06:20:12;;;;;;;5.97;0.60;;;16.90;99.90;;;;;;5071472;28;20549;-86
2022/07/09 06:22:39;;;;;;;0.70;0.50;;;16.90;99.90;;;;;;5069513;28;20825;-86
2022/07/09 06:25:07;;;;;;;1.93;1.00;;;17.00;99.90;;;;;;5074696;28;20459;-86
2022/07/09 06:27:34;;;;;;;0.80;0.70;;;17.00;99.90;;;;;;5068218;28;20470;-87
2022/07/09 06:30:02;;;;;;;1.57;0.60;;;17.00;99.90;;;;;;5068445;28;20474;-86
2022/07/09 06:32:29;;;;;;;3.60;0.50;;;16.90;99.90;;;;;;5069987;28;20523;-86
2022/07/09 06:34:56;;;;;;;1.30;0.60;;;16.90;99.90;;;;;;5068862;28;20622;-86
2022/07/09 06:37:23;;;;;;;0.63;0.60;;;16.90;99.90;;;;;;5077895;28;20701;-86
2022/07/09 06:39:51;;;;;;;0.70;0.60;;;17.00;99.90;;;;;;5069789;28;20549;-86
2022/07/09 06:42:19;;;;;;;0.60;0.53;;;16.90;99.90;;;;;;5066583;28;20472;-86
2022/07/09 06:44:46;;;;;;;2.53;0.63;;;16.80;99.90;;;;;;5073025;28;20813;-86
2022/07/09 06:47:14;;;;;;;1.10;0.60;;;16.80;99.90;;;;;;5064411;28;20501;-86
2022/07/09 06:49:41;;;;;;;2.50;1.00;;;16.70;99.90;;;;;;5075435;28;20465;-86
2022/07/09 06:52:09;;;;;;;1.27;0.60;;;16.80;99.90;;;;;;5066693;28;20486;-87
2022/07/09 06:54:36;;;;;;;0.60;0.60;;;16.90;99.90;;;;;;5070567;28;20573;-87
2022/07/09 06:57:04;;;;;;;0.90;0.50;;;17.20;99.90;;;;;;5071099;28;21104;-87
2022/07/09 06:59:31;;;;;;;0.60;0.50;;;17.40;99.90;;;;;;5077039;28;20494;-87
2022/07/09 07:01:58;;;;;;;2.13;0.87;;;17.50;99.90;;;;;;5076426;28;20472;-88
2022/07/09 07:04:27;;;;;;;0.60;0.50;;;17.90;99.60;;;;;;5075466;28;20462;-87
2022/07/09 07:06:54;;;;;;;1.70;0.60;;;18.40;98.90;;;;;;5078951;28;20945;-87
2022/07/09 07:09:22;;;;;;;0.60;0.60;;;18.60;98.20;;;;;;5077120;28;20480;-87
2022/07/09 07:11:49;;;;;;;2.20;0.50;;;18.60;97.90;;;;;;5075130;28;20495;-88
2022/07/09 07:14:16;;;;;;;1.63;0.70;;;18.80;96.70;;;;;;5076809;28;20566;-87
2022/07/09 07:16:43;;;;;;;2.20;1.03;;;19.00;96.70;;;;;;5074792;28;20615;-87
2022/07/09 07:19:11;;;;;;;0.57;0.50;;;19.00;95.60;;;;;;5065108;28;21013;-87
2022/07/09 07:21:40;;;;;;;0.60;0.50;;;19.10;94.80;;;;;;5068847;28;20468;-88
2022/07/09 07:24:08;;;;;;;1.00;0.50;;;18.90;94.90;;;;;;5067230;28;20474;-88
2022/07/09 07:26:35;;;;;;;1.87;0.60;;;19.00;96.50;;;;;;5073339;28;20866;-88
2022/07/09 07:29:03;;;;;;;1.93;0.60;;;19.40;95.10;;;;;;5081744;28;20508;-88
2022/07/09 07:31:30;;;;;;;0.90;0.53;;;19.50;94.80;;;;;;5070754;28;20461;-88
2022/07/09 07:33:59;;;;;;;0.50;0.50;;;19.20;94.50;;;;;;5074241;28;20470;-88
2022/07/09 07:36:26;;;;;;;0.50;0.50;;;19.20;95.30;;;;;;5068790;28;20458;-87
2022/07/09 07:38:55;;;;;;;0.60;0.50;;;19.30;96.10;;;;;;5074449;28;20583;-88
2022/07/09 07:41:22;;;;;;;0.60;0.50;;;19.50;95.00;;;;;;5076520;28;20470;-87
2022/07/09 07:43:49;;;;;;;0.50;0.40;;;19.20;94.60;;;;;;5078592;28;20547;-88
2022/07/09 07:46:16;;;;;;;0.53;0.50;;;19.30;95.10;;;;;;5073420;28;20523;-88
2022/07/09 07:48:43;;;;;;;1.30;0.50;;;19.30;94.60;;;;;;5075153;28;20467;-88
2022/07/09 07:51:10;;;;;;;0.60;0.40;;;19.50;94.80;;;;;;5068417;28;21250;-87
2022/07/09 07:53:37;;;;;;;1.40;0.50;;;19.40;94.50;;;;;;5071717;28;20839;-88
2022/07/09 07:56:07;;;;;;;0.60;0.50;;;19.50;94.40;;;;;;5081459;28;20517;-89
2022/07/09 07:58:35;;;;;;;1.20;1.10;;;19.50;93.40;;;;;;5092355;28;20467;-88
2022/07/09 08:01:02;;;;;;;1.57;0.50;;;19.70;93.40;;;;;;5080787;28;20470;-89
2022/07/09 08:03:29;;;;;;;0.60;0.50;;;19.80;92.80;;;;;;5078642;28;21021;-89
2022/07/09 08:05:56;;;;;;;1.90;0.50;;;19.70;93.60;;;;;;5077979;28;20459;-90
2022/07/09 08:08:23;;;;;;;1.57;0.90;;;19.90;94.20;;;;;;5080866;28;20518;-88
2022/07/09 08:10:50;;;;;;;0.63;0.50;;;20.10;92.40;;;;;;5080017;28;20471;-88
2022/07/09 08:13:19;;;;;;;0.97;0.70;;;19.70;93.50;;;;;;5078573;28;20649;-88
2022/07/09 08:15:46;;;;;;;1.20;0.50;;;20.10;93.80;;;;;;5075768;28;20483;-88
2022/07/09 08:18:13;;;;;;;1.57;0.60;;;20.60;94.60;;;;;;5068878;28;20504;-88
2022/07/09 08:20:41;;;;;;;1.33;0.60;;;20.60;92.60;;;;;;5067211;28;20941;-89
2022/07/09 08:23:09;;;;;;;0.57;0.40;;;20.50;92.10;;;;;;5069581;28;20528;-89
2022/07/09 08:25:36;;;;;;;3.93;1.00;;;20.40;92.50;;;;;;5076267;28;20454;-89
2022/07/09 08:28:03;;;;;;;0.70;0.60;;;20.30;92.80;;;;;;5076904;28;20940;-89
2022/07/09 08:30:32;;;;;;;1.93;1.20;;;20.10;92.00;;;;;;5076730;28;20495;-88
2022/07/09 08:32:59;;;;;;;1.13;0.57;;;20.20;94.20;;;;;;5071492;28;20945;-88
2022/07/09 08:35:26;;;;;;;0.90;0.60;;;20.40;93.10;;;;;;5074536;28;20747;-89
2022/07/09 08:37:53;;;;;;;0.50;0.43;;;20.40;92.70;;;;;;5074802;28;20522;-88
2022/07/09 08:40:21;;;;;;;0.50;0.40;;;20.50;93.30;;;;;;5081382;28;20473;-89
2022/07/09 08:42:49;;;;;;;1.53;0.60;;;20.50;92.60;;;;;;5075893;28;20842;-89
2022/07/09 08:45:18;;;;;;;0.50;0.40;;;20.30;93.30;;;;;;5078253;28;20468;-89
2022/07/09 08:47:46;;;;;;;0.90;0.70;;;20.50;93.00;;;;;;5083781;28;20451;-89
2022/07/09 08:50:14;;;;;;;0.93;0.60;;;20.60;92.30;;;;;;5077507;28;20476;-88
2022/07/09 08:52:42;;;;;;;2.00;0.90;;;20.80;92.40;;;;;;5075324;28;20468;-89
2022/07/09 08:55:10;;;;;;;0.70;0.70;;;21.00;93.30;;;;;;5074143;28;20484;-89
2022/07/09 08:57:38;;;;;;;3.70;1.33;;;21.00;93.00;;;;;;5076044;28;20557;-89
2022/07/09 09:00:07;;;;;;;1.90;0.60;;;20.90;93.10;;;;;;5079179;28;20463;-89
2022/07/09 09:02:36;;;;;;;1.77;0.60;;;21.20;92.00;;;;;;5081364;28;20972;-89
2022/07/09 09:05:13;;;;;;;0.80;0.50;;;20.90;91.40;;;;;;5078564;28;20494;-90
2022/07/09 09:07:40;;;;;;;1.43;0.60;;;20.70;91.70;;;;;;5066350;28;20558;-90
2022/07/09 09:10:08;;;;;;;0.60;0.57;;;20.60;91.50;;;;;;5075960;28;20495;-89
2022/07/09 09:12:35;;;;;;;1.20;0.53;;;20.80;92.40;;;;;;5073887;28;20545;-89
2022/07/09 09:15:06;;;;;;;0.70;0.53;;;20.80;91.30;;;;;;5074085;28;20541;-89
2022/07/09 09:17:33;;;;;;;1.00;0.70;;;20.40;91.60;;;;;;5074454;28;20755;-89
2022/07/09 09:20:12;;;;;;;1.07;0.53;;;20.50;92.50;;;;;;5070642;28;20583;-90
2022/07/09 09:22:46;;;;;;;0.80;0.60;;;20.90;93.30;;;;;;5077456;28;20476;-89
2022/07/09 09:25:17;;;;;;;0.60;0.50;;;21.00;92.50;;;;;;5071853;28;20459;-89
2022/07/09 09:27:51;;;;;;;1.60;0.40;;;21.20;92.20;;;;;;5074365;28;20466;-89
2022/07/09 09:30:18;;;;;;;0.60;0.60;;;21.00;92.90;;;;;;5074223;28;20440;-89
2022/07/09 09:32:45;;;;;;;0.80;0.80;;;20.90;92.00;;;;;;5073057;28;20470;-89
2022/07/09 09:35:14;;;;;;;0.60;0.50;;;20.80;92.20;;;;;;5070398;28;20487;-89
2022/07/09 09:37:44;;;;;;;1.87;0.60;;;20.70;92.10;;;;;;5075292;28;20459;-89
2022/07/09 09:40:12;;;;;;;1.10;0.70;;;20.90;93.40;;;;;;5072778;28;20494;-89
2022/07/09 09:42:42;;;;;;;0.70;0.63;;;21.10;92.20;;;;;;5071022;28;20506;-88
2022/07/09 09:45:12;;;;;;;2.33;0.70;;;21.30;90.80;;;;;;5076380;28;20542;-89
2022/07/09 09:47:39;;;;;;;2.03;0.90;;;21.50;91.00;;;;;;5078451;28;20463;-88
2022/07/09 09:50:13;;;;;;;0.60;0.50;;;21.60;90.60;;;;;;5078300;28;20515;-90
2022/07/09 09:52:42;;;;;;;0.50;0.50;;;21.60;91.80;;;;;;5071695;28;20545;-92
2022/07/09 09:55:10;;;;;;;1.93;0.60;;;21.60;91.50;;;;;;5072821;28;21034;-88
2022/07/09 09:57:38;;;;;;;1.77;0.70;;;21.60;91.60;;;;;;5071086;28;20561;-88
2022/07/09 10:00:06;;;;;;;0.50;0.50;;;22.10;91.70;;;;;;5071554;28;20542;-88
2022/07/09 10:02:35;;;;;;;1.83;0.70;;;22.60;91.90;;;;;;5074130;28;20465;-88
2022/07/09 10:05:02;;;;;;;0.50;0.40;;;22.30;91.10;;;;;;5076402;28;20872;-88
2022/07/09 10:07:29;;;;;;;2.40;1.10;;;22.00;90.40;;;;;;5068443;28;20557;-89
2022/07/09 10:10:00;;;;;;;0.77;0.63;;;22.10;92.60;;;;;;5073195;28;20592;-88
2022/07/09 10:12:28;;;;;;;3.20;0.60;;;21.90;90.70;;;;;;5069209;28;21218;-88
2022/07/09 10:14:55;;;;;;;0.60;0.50;;;21.50;90.80;;;;;;5072997;28;20459;-87
2022/07/09 10:17:24;;;;;;;2.43;0.50;;;21.40;91.40;;;;;;5066679;28;20900;-89
2022/07/09 10:19:55;;;;;;;0.80;0.70;;;21.70;91.70;;;;;;5077486;28;20971;-89
2022/07/09 10:22:23;;;;;;;0.77;0.67;;;21.90;91.80;;;;;;5065914;28;20769;-89
2022/07/09 10:24:53;;;;;;;0.50;0.50;;;22.00;90.90;;;;;;5068367;28;20468;-89
2022/07/09 10:27:22;;;;;;;2.60;0.50;;;21.90;90.40;;;;;;5071664;28;20459;-90
2022/07/09 10:29:56;;;;;;;0.70;0.50;;;22.00;89.90;;;;;;5070536;28;20463;-91
2022/07/09 10:32:27;;;;;;;2.90;0.50;;;22.10;91.10;;;;;;5069531;28;20673;-89
2022/07/09 10:34:59;;;;;;;3.17;1.30;;;22.40;90.00;;;;;;5069272;28;20545;-90
2022/07/09 10:37:36;;;;;;;0.60;0.60;;;22.80;87.90;;;;;;5069533;28;20531;-89
2022/07/09 10:40:14;;;;;;;1.10;0.60;;;22.30;86.80;;;;;;5072382;28;20504;-90
2022/07/09 10:42:45;;;;;;;0.97;0.50;;;21.80;85.70;;;;;;5071788;28;21054;-90
2022/07/09 10:45:25;;;;;;;1.57;0.47;;;22.00;90.00;;;;;;5066799;28;20463;-91
2022/07/09 10:47:54;;;;;;;0.50;0.50;;;22.60;90.80;;;;;;5072388;28;20473;-90
2022/07/09 10:50:21;;;;;;;0.90;0.60;;;22.70;85.50;;;;;;5076025;28;20556;-90
2022/07/09 10:52:50;;;;;;;0.80;0.43;;;22.60;85.50;;;;;;5074076;28;20498;-90
2022/07/09 10:55:18;;;;;;;2.30;0.77;;;22.50;85.90;;;;;;5077063;28;20486;-90
2022/07/09 10:57:47;;;;;;;1.57;0.70;;;22.70;88.80;;;;;;5080649;28;20481;-90
2022/07/09 11:00:17;;;;;;;0.97;0.50;;;22.70;88.60;;;;;;5081129;28;20470;-90
2022/07/09 11:02:54;;;;;;;0.77;0.57;;;22.70;86.20;;;;;;5092115;28;20524;-91
2022/07/09 11:05:21;;;;;;;0.97;0.50;;;23.30;88.10;;;;;;5071666;28;21002;-90
2022/07/09 11:08:03;;;;;;;1.73;0.50;;;23.20;89.40;;;;;;5077148;28;20471;-90
2022/07/09 11:10:31;;;;;;;0.50;0.50;;;23.10;88.00;;;;;;5077570;28;20459;-90
2022/07/09 11:13:01;;;;;;;0.70;0.40;;;22.90;84.50;;;;;;5078253;28;20544;-90
2022/07/09 11:15:29;;;;;;;0.70;0.50;;;22.90;86.30;;;;;;5072747;28;20463;-90
2022/07/09 11:17:57;;;;;;;0.50;0.40;;;23.20;85.40;;;;;;5074833;28;20520;-90
2022/07/09 11:20:24;;;;;;;6.00;0.53;;;23.60;80.80;;;;;;5071602;28;20459;-90
2022/07/09 11:22:51;;;;;;;0.60;0.50;;;23.70;82.20;;;;;;5075272;28;20451;-90
2022/07/09 11:25:19;;;;;;;0.60;0.60;;;23.60;84.30;;;;;;5071641;28;20914;-91
2022/07/09 11:27:46;;;;;;;1.17;0.60;;;23.80;85.40;;;;;;5071982;28;20469;-90
2022/07/09 11:30:18;;;;;;;2.10;0.57;;;23.90;82.20;;;;;;5071281;28;20488;-91
2022/07/09 11:32:46;;;;;;;1.13;0.40;;;24.00;80.90;;;;;;5071003;28;21154;-92
2022/07/09 11:35:13;;;;;;;0.50;0.40;;;24.00;83.80;;;;;;5073813;28;20539;-91
2022/07/09 11:37:46;;;;;;;2.13;0.53;;;24.00;85.10;;;;;;5078102;28;20537;-90
2022/07/09 11:40:18;;;;;;;0.70;0.50;;;24.00;83.00;;;;;;5075285;28;20491;-92
2022/07/09 11:42:45;;;;;;;1.33;0.50;;;23.40;81.60;;;;;;5072882;28;21120;-92
2022/07/09 11:45:13;;;;;;;0.80;0.50;;;22.80;82.40;;;;;;5071477;28;20513;-91
2022/07/09 11:47:42;;;;;;;0.50;0.40;;;22.80;84.10;;;;;;5073105;28;20456;-91
2022/07/09 11:50:11;;;;;;;1.00;0.60;;;22.70;85.20;;;;;;5078442;28;20854;-91
2022/07/09 11:52:44;;;;;;;0.50;0.50;;;22.60;84.90;;;;;;5077379;28;21022;-91
2022/07/09 11:55:12;;;;;;;1.63;1.13;;;22.80;85.50;;;;;;5078814;28;20455;-91
2022/07/09 11:57:40;;;;;;;0.60;0.50;;;23.00;83.10;;;;;;5081961;28;20487;-91
2022/07/09 12:00:09;;;;;;;0.53;0.50;;;23.10;82.70;;;;;;5093370;28;20484;-91
2022/07/09 12:02:37;;;;;;;0.83;0.50;;;23.00;83.20;;;;;;5089984;28;20481;-92
2022/07/09 12:05:08;;;;;;;0.97;0.50;;;22.80;85.30;;;;;;5090477;28;20458;-92
2022/07/09 12:07:37;;;;;;;1.67;0.50;;;22.60;82.70;;;;;;5081611;28;20471;-92
2022/07/09 12:10:06;;;;;;;0.80;0.50;;;22.30;85.20;;;;;;5083922;28;20471;-92
2022/07/09 12:12:34;;;;;;;0.50;0.50;;;22.30;84.00;;;;;;5082135;28;20462;-91
2022/07/09 12:15:02;;;;;;;0.40;0.40;;;22.70;84.20;;;;;;5081492;28;20523;-91
2022/07/09 12:17:30;;;;;;;0.50;0.40;;;22.60;84.30;;;;;;5072409;28;20562;-91
2022/07/09 12:19:59;;;;;;;2.63;0.60;;;22.50;85.40;;;;;;5072694;28;20957;-91
2022/07/09 12:22:27;;;;;;;0.80;0.40;;;23.20;84.80;;;;;;5072607;28;20528;-91
2022/07/09 12:24:54;;;;;;;0.50;0.50;;;23.40;79.80;;;;;;5077604;28;20474;-92
2022/07/09 12:27:21;;;;;;;0.70;0.40;;;23.10;81.70;;;;;;5068097;28;20495;-91
2022/07/09 12:29:48;;;;;;;0.50;0.30;;;22.50;82.10;;;;;;5079637;28;20801;-91
2022/07/09 12:32:15;;;;;;;0.50;0.40;;;22.80;86.20;;;;;;5072067;28;20468;-91
2022/07/09 12:34:42;;;;;;;1.33;0.40;;;23.00;82.80;;;;;;5077605;28;20527;-92
2022/07/09 12:37:09;;;;;;;1.63;0.30;;;23.10;80.80;;;;;;5077774;28;20760;-92
2022/07/09 12:39:38;;;;;;;0.50;0.40;;;23.10;76.00;;;;;;5081535;28;20535;-92
2022/07/09 12:42:05;;;;;;;0.60;0.40;;;23.20;76.10;;;;;;5084626;28;20463;-92
2022/07/09 12:44:32;;;;;;;0.50;0.40;;;23.20;76.00;;;;;;5075893;28;20818;-91
2022/07/09 12:46:59;;;;;;;0.50;0.37;;;22.90;75.00;;;;;;5079822;28;20459;-91
2022/07/09 12:49:26;;;;;;;0.50;0.30;;;22.80;77.00;;;;;;5077596;28;20543;-92
2022/07/09 12:51:53;;;;;;;0.43;0.30;;;22.50;77.00;;;;;;5076509;28;20750;-90